createdAt,value
2019-02-04T06:05:01.367Z,0.1
2019-02-04T06:07:01.105Z,0.2
2019-02-04T06:08:01.109Z,0.3
2019-02-04T06:10:01.284Z,0.4
2019-02-04T06:11:06.107Z,0.5
2019-02-04T06:12:01.108Z,0.6
2019-02-04T06:13:01.107Z,0.7
2019-02-04T06:14:01.108Z,0.9
2019-02-04T06:16:01.341Z,1.1
2019-02-04T06:17:01.088Z,1.3
2019-02-04T06:18:01.092Z,1.5
2019-02-04T06:19:02.152Z,1.8
2019-02-04T06:20:02.905Z,2.1
2019-02-04T06:21:01.273Z,2.5
2019-02-04T06:22:01.099Z,2.9
2019-02-04T06:23:01.110Z,3.3
2019-02-04T06:24:02.101Z,3.9
2019-02-04T06:25:01.070Z,4.5
2019-02-04T06:26:01.245Z,5.3
2019-02-04T06:27:01.103Z,6.1
2019-02-04T06:28:01.108Z,7.1
2019-02-04T06:29:01.098Z,8.1
2019-02-04T06:30:01.096Z,9.4
2019-02-04T06:31:01.273Z,10.9
2019-02-04T06:32:01.099Z,12.5
2019-02-04T06:33:01.098Z,14.2
2019-02-04T06:34:01.100Z,15.9
2019-02-04T06:35:01.099Z,17.8
2019-02-04T06:36:01.265Z,20.0
2019-02-04T06:37:06.096Z,22.7
2019-02-04T06:38:01.109Z,25.9
2019-02-04T06:39:01.111Z,29.8
2019-02-04T06:40:01.099Z,34.6
2019-02-04T06:41:01.242Z,40.5
2019-02-04T06:42:06.098Z,47.7
2019-02-04T06:43:01.110Z,56.7
2019-02-04T06:44:01.159Z,67.4
2019-02-04T06:45:01.099Z,80.1
2019-02-04T06:46:01.275Z,96.1
2019-02-04T06:47:01.104Z,116.9
2019-02-04T06:48:01.105Z,142.4
2019-02-04T06:49:11.642Z,172.4
2019-02-04T06:50:01.215Z,206.5
2019-02-04T06:51:01.271Z,245.5
2019-02-04T06:52:01.077Z,288.5
2019-02-04T06:54:01.158Z,339.5
2019-02-04T06:55:01.105Z,393.0
2019-02-04T06:56:01.245Z,450.5
2019-02-04T06:57:01.097Z,513.3
2019-02-04T06:58:01.074Z,583.7
2019-02-04T06:59:01.259Z,665.4
2019-02-04T07:00:01.096Z,757.6
2019-02-04T07:01:01.247Z,857.7
2019-02-04T07:02:01.097Z,971.3
2019-02-04T07:03:01.098Z,1106.8
2019-02-04T07:04:01.096Z,1262.1
2019-02-04T07:05:01.101Z,1427.2
2019-02-04T07:06:02.142Z,1588.8
2019-02-04T07:07:01.458Z,1738.2
2019-02-04T07:08:01.099Z,1871.9
2019-02-04T07:09:01.103Z,1996.7
2019-02-04T07:10:01.102Z,2128.0
2019-02-04T07:11:01.241Z,2276.1
2019-02-04T07:12:01.102Z,2444.9
2019-02-04T07:13:01.067Z,2622.5
2019-02-04T07:14:01.099Z,2792.3
2019-02-04T07:15:01.102Z,2952.5
2019-02-04T07:16:01.530Z,3109.0
2019-02-04T07:17:01.100Z,3260.2
2019-02-04T07:18:01.979Z,3399.9
2019-02-04T07:19:01.104Z,3535.0
2019-02-04T07:20:01.163Z,3680.5
2019-02-04T07:21:01.313Z,3852.7
2019-02-04T07:22:01.178Z,4056.9
2019-02-04T07:23:01.125Z,4290.9
2019-02-04T07:24:01.103Z,4539.3
2019-02-04T07:25:06.111Z,4785.3
2019-02-04T07:26:01.321Z,5013.0
2019-02-04T07:27:01.107Z,5217.1
2019-02-04T07:28:01.104Z,5438.1
2019-02-04T07:30:01.097Z,5729.9
2019-02-04T07:31:01.683Z,6051.3
2019-02-04T07:32:01.097Z,6393.3
2019-02-04T07:33:01.094Z,6748.1
2019-02-04T07:34:01.099Z,7127.9
2019-02-04T07:35:01.125Z,7540.5
2019-02-04T07:36:03.321Z,7966.8
2019-02-04T07:37:01.093Z,8387.1
2019-02-04T07:38:01.102Z,8791.7
2019-02-04T07:39:01.098Z,9154.3
2019-02-04T07:40:01.124Z,9475.6
2019-02-04T07:41:01.237Z,9787.1
2019-02-04T07:42:01.094Z,10088.1
2019-02-04T07:43:01.099Z,10399.8
2019-02-04T07:44:01.094Z,10704.5
2019-02-04T07:45:06.096Z,10938.4
2019-02-04T07:46:01.639Z,11178.1
2019-02-04T07:47:01.093Z,11451.4
2019-02-04T07:48:01.098Z,11765.6
2019-02-04T07:49:01.096Z,12078.7
2019-02-04T07:50:06.104Z,12359.1
2019-02-04T07:51:01.238Z,12634.1
2019-02-04T07:52:01.106Z,12915.4
2019-02-04T07:53:01.128Z,13213.5
2019-02-04T07:54:01.098Z,13560.1
2019-02-04T07:55:01.097Z,13973.7
2019-02-04T07:56:01.245Z,14455.9
2019-02-04T07:57:01.097Z,15027.4
2019-02-04T07:58:01.135Z,15683.3
2019-02-04T07:59:01.099Z,16428.3
2019-02-04T08:00:01.106Z,17289.5
2019-02-04T08:01:01.240Z,18204.0
2019-02-04T08:02:01.102Z,19113.1
2019-02-04T08:03:06.104Z,20000.7
2019-02-04T08:04:01.099Z,20897.0
2019-02-04T08:05:01.097Z,21817.9
2019-02-04T08:06:01.254Z,22753.1
2019-02-04T08:07:01.105Z,23720.1
2019-02-04T08:08:06.100Z,24739.4
2019-02-04T08:09:01.108Z,25789.7
2019-02-04T08:10:02.199Z,26817.6
2019-02-04T08:11:01.339Z,27865.4
2019-02-04T08:12:01.102Z,28744.5
2019-02-04T08:13:02.060Z,29431.0
2019-02-04T08:14:01.103Z,30057.1
2019-02-04T08:15:01.112Z,30596.3
2019-02-04T08:16:01.248Z,31052.7
2019-02-04T08:17:01.104Z,31465.4
2019-02-04T08:18:01.159Z,31850.7
2019-02-04T08:19:01.109Z,32217.3
2019-02-04T08:20:01.106Z,32572.1
2019-02-04T08:21:01.505Z,32948.3
2019-02-04T08:22:01.108Z,33358.0
2019-02-04T08:23:01.138Z,33806.3
2019-02-04T08:24:01.106Z,34342.7
2019-02-04T08:25:01.106Z,34979.0
2019-02-04T08:26:01.253Z,35631.0
2019-02-04T08:27:01.105Z,36502.1
2019-02-04T08:28:01.140Z,37656.9
2019-02-04T08:29:01.106Z,38964.9
2019-02-04T08:30:01.113Z,40355.1
2019-02-04T08:32:01.095Z,41748.1
2019-02-04T08:33:01.228Z,43284.7
2019-02-04T08:34:01.104Z,45082.2
2019-02-04T08:35:01.103Z,47128.5
2019-02-04T08:36:01.243Z,49210.7
2019-02-04T08:37:01.100Z,51224.7
2019-02-04T08:38:01.196Z,53145.2
2019-02-04T08:39:01.098Z,54948.6
2019-02-04T08:40:01.106Z,56608.0
2019-02-04T08:41:01.247Z,58149.9
2019-02-04T08:42:01.104Z,59590.1
2019-02-04T08:43:01.139Z,60728.5
2019-02-04T08:44:01.107Z,61375.5
2019-02-04T08:45:01.105Z,61587.5
2019-02-04T08:46:01.249Z,61598.3
2019-02-04T08:47:01.114Z,61467.8
2019-02-04T08:48:01.138Z,61011.3
2019-02-04T08:49:01.105Z,60143.1
2019-02-04T08:50:01.850Z,58949.9
2019-02-04T08:51:01.251Z,57696.9
2019-02-04T08:53:01.091Z,56438.7
2019-02-04T08:54:06.094Z,55368.5
2019-02-04T08:55:01.089Z,54600.4
2019-02-04T08:56:01.154Z,54132.5
2019-02-04T08:57:01.363Z,53800.5
2019-02-04T08:58:01.092Z,53465.7
2019-02-04T08:59:01.160Z,53236.6
2019-02-04T09:00:01.109Z,53036.1
2019-02-04T09:01:01.089Z,52735.1
2019-02-04T09:02:01.238Z,52333.2
2019-02-04T09:03:01.095Z,52004.1
2019-02-04T09:04:01.132Z,51826.1
2019-02-04T09:05:01.094Z,51768.3
2019-02-04T09:06:01.097Z,51769.3
2019-02-04T09:07:01.913Z,51740.1
2019-02-04T09:08:01.096Z,51666.6
2019-02-04T09:09:01.168Z,51334.4
2019-02-04T09:10:01.096Z,50723.2
2019-02-04T09:11:01.096Z,49934.9
2019-02-04T09:12:01.328Z,49119.9
2019-02-04T09:13:01.113Z,48397.5
2019-02-04T09:14:01.144Z,47879.3
2019-02-04T09:15:01.121Z,47792.5
2019-02-04T09:16:01.093Z,48177.0
2019-02-04T09:17:01.310Z,48844.3
2019-02-04T09:18:01.103Z,49645.3
2019-02-04T09:19:01.128Z,50495.7
2019-02-04T09:20:09.563Z,51129.7
2019-02-04T09:21:01.103Z,52024.5
2019-02-04T09:22:01.239Z,52854.9
2019-02-04T09:23:01.098Z,53798.5
2019-02-04T09:24:01.130Z,54926.9
2019-02-04T09:25:01.095Z,56139.9
2019-02-04T09:26:01.098Z,57207.5
2019-02-04T09:27:01.306Z,58133.5
2019-02-04T09:28:01.099Z,58978.8
2019-02-04T09:29:01.132Z,59699.6
2019-02-04T09:30:01.100Z,60425.5
2019-02-04T09:31:01.067Z,61038.1
2019-02-04T09:32:01.311Z,61552.9
2019-02-04T09:33:01.164Z,61991.3
2019-02-04T09:34:01.131Z,62399.9
2019-02-04T09:35:01.098Z,63038.9
2019-02-04T09:36:01.103Z,63405.6
2019-02-04T09:37:01.313Z,63857.5
2019-02-04T09:38:01.102Z,64245.5
2019-02-04T09:39:01.124Z,64519.4
2019-02-04T09:40:01.113Z,64685.7
2019-02-04T09:41:06.108Z,64874.4
2019-02-04T09:42:01.241Z,65095.4
2019-02-04T09:43:01.098Z,65307.3
2019-02-04T09:44:01.102Z,65502.7
2019-02-04T09:45:01.240Z,65535.0
2019-02-04T09:47:01.255Z,65394.9
2019-02-04T09:48:01.103Z,65014.1
2019-02-04T09:49:01.099Z,64772.5
2019-02-04T09:50:01.106Z,64171.0
2019-02-04T09:51:06.109Z,63536.4
2019-02-04T09:52:01.302Z,63128.0
2019-02-04T09:53:01.107Z,62677.9
2019-02-04T09:54:01.131Z,62462.7
2019-02-04T09:55:01.108Z,62260.5
2019-02-04T09:57:01.259Z,62255.5
2019-02-04T09:58:01.105Z,62164.7
2019-02-04T09:59:01.108Z,62079.5
2019-02-04T10:00:01.140Z,62079.5
2019-02-04T10:02:01.252Z,62219.5
2019-02-04T10:04:01.095Z,62600.3
2019-02-04T10:05:01.092Z,62841.9
2019-02-04T10:06:01.121Z,63443.5
2019-02-04T10:07:01.090Z,64078.1
2019-02-04T10:08:01.329Z,64486.5
2019-02-04T10:09:01.090Z,64936.5
2019-02-04T10:10:01.089Z,65151.7
2019-02-04T10:11:01.116Z,65353.9
2019-02-04T10:13:01.242Z,65359.0
2019-02-04T10:14:01.100Z,65449.8
2019-02-04T10:15:01.191Z,65535.0
2019-02-04T10:30:01.141Z,65535.0
2019-02-04T10:44:01.297Z,65524.1
2019-02-04T10:45:01.144Z,65470.1
2019-02-04T10:46:01.293Z,65390.5
2019-02-04T10:47:01.137Z,65302.5
2019-02-04T10:48:01.107Z,65227.4
2019-02-04T10:49:01.269Z,65185.3
2019-02-04T10:59:01.402Z,65196.2
2019-02-04T11:00:02.206Z,65250.1
2019-02-04T11:01:01.103Z,65329.7
2019-02-04T11:02:01.118Z,65417.7
2019-02-04T11:03:01.151Z,65492.9
2019-02-04T11:04:01.354Z,65535.0
2019-02-04T11:15:01.353Z,65535.0
2019-02-04T11:30:01.491Z,65535.0
2019-02-04T11:45:01.273Z,65535.0
2019-02-04T11:56:01.320Z,65482.1
2019-02-04T11:57:01.098Z,65385.8
2019-02-04T11:58:01.128Z,65270.8
2019-02-04T11:59:01.105Z,65159.5
2019-02-04T12:00:01.098Z,65068.8
2019-02-04T12:01:01.252Z,65009.3
2019-02-04T12:02:01.102Z,64988.0
2019-02-04T12:11:01.339Z,65040.9
2019-02-04T12:12:01.105Z,65137.2
2019-02-04T12:13:06.116Z,65252.2
2019-02-04T12:14:01.993Z,65363.5
2019-02-04T12:15:01.109Z,65454.2
2019-02-04T12:16:01.252Z,65513.7
2019-02-04T12:17:01.104Z,65535.0
2019-02-04T12:32:06.115Z,65535.0
2019-02-04T12:45:01.101Z,65535.0
2019-02-04T13:00:01.100Z,65535.0
2019-02-04T13:15:01.166Z,65491.1
2019-02-04T13:16:01.106Z,65169.1
2019-02-04T13:17:01.065Z,64646.9
2019-02-04T13:18:01.243Z,63993.1
2019-02-04T13:19:01.137Z,63273.9
2019-02-04T13:20:01.103Z,62563.7
2019-02-04T13:21:01.105Z,61954.4
2019-02-04T13:22:01.102Z,61488.2
2019-02-04T13:23:01.246Z,61128.1
2019-02-04T13:24:06.101Z,60808.3
2019-02-04T13:25:01.114Z,60481.4
2019-02-04T13:26:01.105Z,60128.3
2019-02-04T13:27:01.110Z,59746.9
2019-02-04T13:28:02.144Z,59336.0
2019-02-04T13:29:06.107Z,58885.7
2019-02-04T13:30:01.114Z,58416.3
2019-02-04T13:31:01.102Z,58155.7
2019-02-04T13:32:01.105Z,58039.7
2019-02-04T13:33:01.335Z,57987.2
2019-02-04T13:35:01.217Z,57809.5
2019-02-04T13:36:01.097Z,57486.1
2019-02-04T13:37:01.092Z,56888.9
2019-02-04T13:38:01.086Z,56020.5
2019-02-04T13:39:01.244Z,55010.9
2019-02-04T13:40:01.096Z,54009.5
2019-02-04T13:41:07.658Z,53056.4
2019-02-04T13:42:01.094Z,52115.9
2019-02-04T13:43:01.138Z,51158.3
2019-02-04T13:44:01.237Z,50154.1
2019-02-04T13:45:01.094Z,49123.5
2019-02-04T13:46:01.096Z,48102.5
2019-02-04T13:47:01.100Z,47233.6
2019-02-04T13:48:01.095Z,46562.0
2019-02-04T13:49:01.246Z,46084.0
2019-02-04T13:50:01.094Z,45929.3
2019-02-04T13:51:01.092Z,46010.1
2019-02-04T13:52:01.094Z,46336.0
2019-02-04T13:53:01.097Z,46828.7
2019-02-04T13:54:01.239Z,47348.2
2019-02-04T13:55:01.093Z,47750.7
2019-02-04T13:56:01.095Z,48082.5
2019-02-04T13:57:03.576Z,48429.7
2019-02-04T13:58:01.094Z,48818.1
2019-02-04T13:59:01.246Z,49252.8
2019-02-04T14:00:01.113Z,49681.4
2019-02-04T14:01:06.095Z,50046.1
2019-02-04T14:02:01.120Z,50234.1
2019-02-04T14:03:01.098Z,50214.1
2019-02-04T14:04:01.246Z,49982.0
2019-02-04T14:05:01.097Z,49556.7
2019-02-04T14:06:01.132Z,48995.1
2019-02-04T14:07:01.100Z,48313.8
2019-02-04T14:08:01.070Z,47542.9
2019-02-04T14:09:01.269Z,46730.1
2019-02-04T14:10:01.166Z,45930.8
2019-02-04T14:11:01.135Z,45096.5
2019-02-04T14:12:01.100Z,44208.3
2019-02-04T14:13:01.107Z,43315.3
2019-02-04T14:14:01.248Z,42467.5
2019-02-04T14:15:01.100Z,41694.8
2019-02-04T14:16:01.152Z,41020.7
2019-02-04T14:17:01.106Z,40417.7
2019-02-04T14:18:01.099Z,39861.5
2019-02-04T14:19:01.241Z,39385.3
2019-02-04T14:20:01.275Z,38973.3
2019-02-04T14:21:01.135Z,38575.4
2019-02-04T14:22:08.840Z,38159.1
2019-02-04T14:23:01.112Z,37686.9
2019-02-04T14:24:01.247Z,37142.2
2019-02-04T14:25:01.103Z,36534.9
2019-02-04T14:26:01.137Z,35890.5
2019-02-04T14:27:01.106Z,35207.3
2019-02-04T14:28:03.438Z,34459.5
2019-02-04T14:29:01.324Z,33652.3
2019-02-04T14:30:01.074Z,32797.5
2019-02-04T14:31:01.144Z,31911.6
2019-02-04T14:32:01.106Z,31023.9
2019-02-04T14:33:01.106Z,30132.4
2019-02-04T14:34:01.249Z,29186.2
2019-02-04T14:35:01.105Z,28159.9
2019-02-04T14:36:01.142Z,27094.1
2019-02-04T14:37:01.106Z,26059.3
2019-02-04T14:39:01.231Z,25032.7
2019-02-04T14:40:01.106Z,24066.7
2019-02-04T14:41:01.130Z,23168.6
2019-02-04T14:42:01.097Z,22338.5
2019-02-04T14:43:01.098Z,21545.7
2019-02-04T14:44:01.241Z,20745.7
2019-02-04T14:45:01.089Z,19910.9
2019-02-04T14:46:01.130Z,19030.6
2019-02-04T14:47:01.095Z,18115.1
2019-02-04T14:48:04.118Z,17130.1
2019-02-04T14:49:01.317Z,16132.1
2019-02-04T14:50:01.093Z,15207.1
2019-02-04T14:51:01.121Z,14327.3
2019-02-04T14:52:01.134Z,13501.3
2019-02-04T14:53:01.098Z,12753.3
2019-02-04T14:54:01.334Z,12155.2
2019-02-04T14:55:01.109Z,11646.9
2019-02-04T14:56:01.094Z,11175.6
2019-02-04T14:57:01.099Z,10700.1
2019-02-04T14:58:01.128Z,10262.9
2019-02-04T14:59:01.244Z,9898.9
2019-02-04T15:00:01.099Z,9618.3
2019-02-04T15:01:01.097Z,9441.1
2019-02-04T15:02:01.095Z,9352.5
2019-02-04T15:03:18.242Z,9338.4
2019-02-04T15:04:01.245Z,9330.1
2019-02-04T15:05:01.100Z,9281.0
2019-02-04T15:06:01.095Z,9243.0
2019-02-04T15:07:01.068Z,9222.0
2019-02-04T15:08:01.129Z,9163.8
2019-02-04T15:09:02.218Z,9055.7
2019-02-04T15:10:01.102Z,8896.7
2019-02-04T15:11:01.099Z,8730.3
2019-02-04T15:12:01.105Z,8591.0
2019-02-04T15:13:01.139Z,8454.1
2019-02-04T15:14:01.255Z,8321.7
2019-02-04T15:15:01.114Z,8170.5
2019-02-04T15:16:01.111Z,7986.5
2019-02-04T15:17:01.159Z,7779.3
2019-02-04T15:18:06.108Z,7553.3
2019-02-04T15:19:02.385Z,7321.2
2019-02-04T15:20:01.294Z,7085.3
2019-02-04T15:22:01.091Z,6833.1
2019-02-04T15:23:01.119Z,6568.3
2019-02-04T15:24:08.294Z,6296.4
2019-02-04T15:25:01.098Z,6007.1
2019-02-04T15:26:01.100Z,5717.9
2019-02-04T15:27:01.099Z,5432.0
2019-02-04T15:28:01.193Z,5154.1
2019-02-04T15:29:01.235Z,4883.1
2019-02-04T15:30:01.098Z,4609.3
2019-02-04T15:31:01.093Z,4326.9
2019-02-04T15:32:01.100Z,4066.5
2019-02-04T15:33:01.127Z,3829.3
2019-02-04T15:34:01.328Z,3622.1
2019-02-04T15:35:04.321Z,3446.6
2019-02-04T15:36:01.100Z,3286.9
2019-02-04T15:37:01.098Z,3139.9
2019-02-04T15:38:01.121Z,2987.4
2019-02-04T15:39:01.244Z,2836.3
2019-02-04T15:40:01.097Z,2693.1
2019-02-04T15:41:01.101Z,2564.3
2019-02-04T15:42:01.093Z,2438.7
2019-02-04T15:43:01.120Z,2315.1
2019-02-04T15:44:01.321Z,2199.6
2019-02-04T15:45:01.099Z,2088.9
2019-02-04T15:46:01.572Z,1996.5
2019-02-04T15:47:01.109Z,1899.9
2019-02-04T15:48:01.144Z,1794.5
2019-02-04T15:49:01.236Z,1692.7
2019-02-04T15:50:01.098Z,1588.3
2019-02-04T15:51:01.097Z,1496.3
2019-02-04T15:52:01.094Z,1423.2
2019-02-04T15:53:01.126Z,1354.3
2019-02-04T15:54:01.245Z,1280.3
2019-02-04T15:55:01.098Z,1209.9
2019-02-04T15:56:01.105Z,1145.5
2019-02-04T15:57:01.106Z,1095.5
2019-02-04T15:58:01.131Z,1041.9
2019-02-04T15:59:01.311Z,982.8
2019-02-04T16:00:01.105Z,922.1
2019-02-04T16:01:04.582Z,862.5
2019-02-04T16:02:01.106Z,803.1
2019-02-04T16:03:06.107Z,746.2
2019-02-04T16:04:01.249Z,691.7
2019-02-04T16:05:01.181Z,643.3
2019-02-04T16:06:01.071Z,598.7
2019-02-04T16:08:01.132Z,557.9
2019-02-04T16:09:01.237Z,523.9
2019-02-04T16:10:01.090Z,495.2
2019-02-04T16:11:01.090Z,469.5
2019-02-04T16:12:01.092Z,446.7
2019-02-04T16:13:01.087Z,422.0
2019-02-04T16:14:01.271Z,400.6
2019-02-04T16:15:01.101Z,380.2
2019-02-04T16:16:01.092Z,361.3
2019-02-04T16:17:01.089Z,344.7
2019-02-04T16:18:01.102Z,328.3
2019-02-04T16:19:01.237Z,313.2
2019-02-04T16:20:01.055Z,298.6
2019-02-04T16:21:01.090Z,284.0
2019-02-04T16:22:01.097Z,268.9
2019-02-04T16:23:01.097Z,252.6
2019-02-04T16:24:01.308Z,234.3
2019-02-04T16:25:01.095Z,215.7
2019-02-04T16:26:06.096Z,199.1
2019-02-04T16:27:01.093Z,182.7
2019-02-04T16:28:02.171Z,167.3
2019-02-04T16:29:01.238Z,153.1
2019-02-04T16:30:01.093Z,141.0
2019-02-04T16:31:01.120Z,130.1
2019-02-04T16:32:01.095Z,119.3
2019-02-04T16:33:01.094Z,109.2
2019-02-04T16:34:01.274Z,99.9
2019-02-04T16:35:01.124Z,92.0
2019-02-04T16:36:01.094Z,85.1
2019-02-04T16:37:01.095Z,79.5
2019-02-04T16:38:01.099Z,75.5
2019-02-04T16:39:01.245Z,72.7
2019-02-04T16:40:01.116Z,69.1
2019-02-04T16:41:01.095Z,64.5
2019-02-04T16:42:01.099Z,59.7
2019-02-04T16:43:03.608Z,54.5
2019-02-04T16:44:01.345Z,49.1
2019-02-04T16:45:01.109Z,43.6
2019-02-04T16:46:01.091Z,38.3
2019-02-04T16:47:01.099Z,33.3
2019-02-04T16:48:01.100Z,29.0
2019-02-04T16:49:01.336Z,25.4
2019-02-04T16:50:01.106Z,22.1
2019-02-04T16:51:11.098Z,19.1
2019-02-04T16:52:01.110Z,16.3
2019-02-04T16:53:09.947Z,13.7
2019-02-04T16:54:01.246Z,11.5
2019-02-04T16:55:01.110Z,9.8
2019-02-04T16:56:01.103Z,8.2
2019-02-04T16:57:01.101Z,6.8
2019-02-04T16:58:01.101Z,5.6
2019-02-04T16:59:01.253Z,4.7
2019-02-04T17:00:01.119Z,4.1
2019-02-04T17:01:01.142Z,3.4
2019-02-04T17:02:01.101Z,2.9
2019-02-04T17:03:01.106Z,2.5
2019-02-04T17:04:01.249Z,2.0
2019-02-04T17:05:01.105Z,1.6
2019-02-04T17:06:01.103Z,1.3
2019-02-04T17:07:02.441Z,1.0
2019-02-04T17:08:06.107Z,0.8
2019-02-04T17:09:02.237Z,0.7
2019-02-04T17:10:01.204Z,0.5
2019-02-04T17:13:06.099Z,0.4
2019-02-04T17:14:01.277Z,0.3
2019-02-04T17:15:01.099Z,0.3
2019-02-04T17:16:01.098Z,0.2
2019-02-04T17:17:01.093Z,0.1
